sensor_id;sensor_type;location;lat;lon;timestamp;temperature;humidity
19330;DHT22;9799;48.214;16.388;2024-03-08T00:01:14;5.90;99.90
19330;DHT22;9799;48.214;16.388;2024-03-08T00:04:36;5.90;99.90
19330;DHT22;9799;48.214;16.388;2024-03-08T00:07:57;5.80;99.90
19330;DHT22;9799;48.214;16.388;2024-03-08T00:11:19;5.70;99.90
19330;DHT22;9799;48.214;16.388;2024-03-08T00:14:41;5.90;99.90
19330;DHT22;9799;48.214;16.388;2024-03-08T00:18:04;5.60;99.90
19330;DHT22;9799;48.214;16.388;2024-03-08T00:21:40;5.70;99.90
19330;DHT22;9799;48.214;16.388;2024-03-08T00:25:01;5.90;99.90
19330;DHT22;9799;48.214;16.388;2024-03-08T00:28:23;6.00;99.90
19330;DHT22;9799;48.214;16.388;2024-03-08T00:31:45;6.00;99.90
19330;DHT22;9799;48.214;16.388;2024-03-08T00:35:08;5.90;99.90
19330;DHT22;9799;48.214;16.388;2024-03-08T00:38:29;5.80;99.90
19330;DHT22;9799;48.214;16.388;2024-03-08T00:41:50;5.80;99.90
19330;DHT22;9799;48.214;16.388;2024-03-08T00:45:11;5.80;99.90
19330;DHT22;9799;48.214;16.388;2024-03-08T00:48:32;6.00;99.90
19330;DHT22;9799;48.214;16.388;2024-03-08T00:51:55;6.00;99.90
19330;DHT22;9799;48.214;16.388;2024-03-08T00:55:16;5.80;99.90
19330;DHT22;9799;48.214;16.388;2024-03-08T00:58:37;5.90;99.90
19330;DHT22;9799;48.214;16.388;2024-03-08T01:01:58;5.90;99.90
19330;DHT22;9799;48.214;16.388;2024-03-08T01:05:20;5.80;99.90
19330;DHT22;9799;48.214;16.388;2024-03-08T01:08:43;5.70;99.90
19330;DHT22;9799;48.214;16.388;2024-03-08T01:12:05;5.70;99.90
19330;DHT22;9799;48.214;16.388;2024-03-08T01:15:27;5.50;99.90
19330;DHT22;9799;48.214;16.388;2024-03-08T01:18:48;5.60;99.90
19330;DHT22;9799;48.214;16.388;2024-03-08T01:22:09;5.60;99.90
19330;DHT22;9799;48.214;16.388;2024-03-08T01:25:32;5.60;99.90
19330;DHT22;9799;48.214;16.388;2024-03-08T01:28:53;5.70;99.90
19330;DHT22;9799;48.214;16.388;2024-03-08T01:32:14;5.70;99.90
19330;DHT22;9799;48.214;16.388;2024-03-08T01:35:35;5.60;99.90
19330;DHT22;9799;48.214;16.388;2024-03-08T01:38:57;5.70;99.90
19330;DHT22;9799;48.214;16.388;2024-03-08T01:42:19;5.60;99.90
19330;DHT22;9799;48.214;16.388;2024-03-08T01:45:42;5.50;99.90
19330;DHT22;9799;48.214;16.388;2024-03-08T01:49:03;5.40;99.90
19330;DHT22;9799;48.214;16.388;2024-03-08T01:52:25;5.50;99.90
19330;DHT22;9799;48.214;16.388;2024-03-08T01:55:48;5.50;99.90
19330;DHT22;9799;48.214;16.388;2024-03-08T01:59:10;5.30;99.90
19330;DHT22;9799;48.214;16.388;2024-03-08T02:02:32;5.30;99.90
19330;DHT22;9799;48.214;16.388;2024-03-08T02:05:54;5.40;99.90
19330;DHT22;9799;48.214;16.388;2024-03-08T02:09:15;5.10;99.90
19330;DHT22;9799;48.214;16.388;2024-03-08T02:12:37;5.00;99.90
19330;DHT22;9799;48.214;16.388;2024-03-08T02:16:00;5.00;99.90
19330;DHT22;9799;48.214;16.388;2024-03-08T02:19:22;5.00;99.90
19330;DHT22;9799;48.214;16.388;2024-03-08T02:22:44;5.00;99.90
19330;DHT22;9799;48.214;16.388;2024-03-08T02:26:05;5.20;99.90
19330;DHT22;9799;48.214;16.388;2024-03-08T02:29:27;5.10;99.90
19330;DHT22;9799;48.214;16.388;2024-03-08T02:32:48;5.10;99.90
19330;DHT22;9799;48.214;16.388;2024-03-08T02:36:10;5.00;99.90
19330;DHT22;9799;48.214;16.388;2024-03-08T02:39:33;5.00;99.90
19330;DHT22;9799;48.214;16.388;2024-03-08T02:42:55;5.10;99.90
19330;DHT22;9799;48.214;16.388;2024-03-08T02:46:16;5.10;99.90
19330;DHT22;9799;48.214;16.388;2024-03-08T02:49:37;5.30;99.90
19330;DHT22;9799;48.214;16.388;2024-03-08T02:52:59;5.30;99.90
19330;DHT22;9799;48.214;16.388;2024-03-08T02:56:21;5.20;99.90
19330;DHT22;9799;48.214;16.388;2024-03-08T02:59:43;5.40;99.90
19330;DHT22;9799;48.214;16.388;2024-03-08T03:03:05;5.30;99.90
19330;DHT22;9799;48.214;16.388;2024-03-08T03:06:27;5.30;99.90
19330;DHT22;9799;48.214;16.388;2024-03-08T03:09:48;5.30;99.90
19330;DHT22;9799;48.214;16.388;2024-03-08T03:13:12;5.30;99.90
19330;DHT22;9799;48.214;16.388;2024-03-08T03:16:33;5.30;99.90
19330;DHT22;9799;48.214;16.388;2024-03-08T03:19:55;5.20;99.90
19330;DHT22;9799;48.214;16.388;2024-03-08T03:23:16;5.30;99.90
19330;DHT22;9799;48.214;16.388;2024-03-08T03:26:40;5.20;99.90
19330;DHT22;9799;48.214;16.388;2024-03-08T03:30:03;5.20;99.90
19330;DHT22;9799;48.214;16.388;2024-03-08T03:33:40;5.20;99.90
19330;DHT22;9799;48.214;16.388;2024-03-08T03:37:02;5.30;99.90
19330;DHT22;9799;48.214;16.388;2024-03-08T03:40:23;5.00;99.90
19330;DHT22;9799;48.214;16.388;2024-03-08T03:43:45;5.00;99.90
19330;DHT22;9799;48.214;16.388;2024-03-08T03:47:08;5.00;99.90
19330;DHT22;9799;48.214;16.388;2024-03-08T03:50:30;5.20;99.90
19330;DHT22;9799;48.214;16.388;2024-03-08T03:53:54;5.00;99.90
19330;DHT22;9799;48.214;16.388;2024-03-08T03:57:17;5.00;99.90
19330;DHT22;9799;48.214;16.388;2024-03-08T04:00:38;5.20;99.90
19330;DHT22;9799;48.214;16.388;2024-03-08T04:04:02;5.40;99.90
19330;DHT22;9799;48.214;16.388;2024-03-08T04:07:23;5.30;99.90
19330;DHT22;9799;48.214;16.388;2024-03-08T04:10:44;5.40;99.90
19330;DHT22;9799;48.214;16.388;2024-03-08T04:14:05;4.80;99.90
19330;DHT22;9799;48.214;16.388;2024-03-08T04:17:27;4.90;99.90
19330;DHT22;9799;48.214;16.388;2024-03-08T04:20:49;5.00;99.90
19330;DHT22;9799;48.214;16.388;2024-03-08T04:24:10;5.20;99.90
19330;DHT22;9799;48.214;16.388;2024-03-08T04:27:32;5.20;99.90
19330;DHT22;9799;48.214;16.388;2024-03-08T04:30:54;5.00;99.90
19330;DHT22;9799;48.214;16.388;2024-03-08T04:34:15;5.00;99.90
19330;DHT22;9799;48.214;16.388;2024-03-08T04:37:37;4.90;99.90
19330;DHT22;9799;48.214;16.388;2024-03-08T04:40:59;5.10;99.90
19330;DHT22;9799;48.214;16.388;2024-03-08T04:44:23;5.30;99.90
19330;DHT22;9799;48.214;16.388;2024-03-08T04:47:44;5.20;99.90
19330;DHT22;9799;48.214;16.388;2024-03-08T04:51:05;5.10;99.90
19330;DHT22;9799;48.214;16.388;2024-03-08T04:54:28;4.90;99.90
19330;DHT22;9799;48.214;16.388;2024-03-08T04:57:49;4.80;99.90
19330;DHT22;9799;48.214;16.388;2024-03-08T05:01:10;4.70;99.90
19330;DHT22;9799;48.214;16.388;2024-03-08T05:04:31;4.80;99.90
19330;DHT22;9799;48.214;16.388;2024-03-08T05:07:52;4.80;99.90
19330;DHT22;9799;48.214;16.388;2024-03-08T05:11:15;4.70;99.90
19330;DHT22;9799;48.214;16.388;2024-03-08T05:14:36;4.70;99.90
19330;DHT22;9799;48.214;16.388;2024-03-08T05:17:57;4.80;99.90
19330;DHT22;9799;48.214;16.388;2024-03-08T05:21:19;5.00;99.90
19330;DHT22;9799;48.214;16.388;2024-03-08T05:24:40;5.20;99.90
19330;DHT22;9799;48.214;16.388;2024-03-08T05:28:04;5.30;99.90
19330;DHT22;9799;48.214;16.388;2024-03-08T05:31:25;5.40;99.90
19330;DHT22;9799;48.214;16.388;2024-03-08T05:34:48;5.40;99.90
19330;DHT22;9799;48.214;16.388;2024-03-08T05:38:09;5.40;99.90
19330;DHT22;9799;48.214;16.388;2024-03-08T05:41:32;5.10;99.90
19330;DHT22;9799;48.214;16.388;2024-03-08T05:44:55;5.00;99.90
19330;DHT22;9799;48.214;16.388;2024-03-08T05:48:16;4.90;99.90
19330;DHT22;9799;48.214;16.388;2024-03-08T05:51:39;4.90;99.90
19330;DHT22;9799;48.214;16.388;2024-03-08T05:55:00;5.00;99.90
19330;DHT22;9799;48.214;16.388;2024-03-08T05:58:23;5.10;99.90
19330;DHT22;9799;48.214;16.388;2024-03-08T06:01:45;5.10;99.90
19330;DHT22;9799;48.214;16.388;2024-03-08T06:05:09;5.00;99.90
19330;DHT22;9799;48.214;16.388;2024-03-08T06:08:30;4.90;99.90
19330;DHT22;9799;48.214;16.388;2024-03-08T06:11:52;4.90;99.90
19330;DHT22;9799;48.214;16.388;2024-03-08T06:15:13;4.90;99.90
19330;DHT22;9799;48.214;16.388;2024-03-08T06:18:37;4.90;99.90
19330;DHT22;9799;48.214;16.388;2024-03-08T06:21:58;4.90;99.90
19330;DHT22;9799;48.214;16.388;2024-03-08T06:25:22;4.90;99.90
19330;DHT22;9799;48.214;16.388;2024-03-08T06:28:43;4.90;99.90
19330;DHT22;9799;48.214;16.388;2024-03-08T06:32:05;5.00;99.90
19330;DHT22;9799;48.214;16.388;2024-03-08T06:35:27;4.90;99.90
19330;DHT22;9799;48.214;16.388;2024-03-08T06:38:52;5.20;99.90
19330;DHT22;9799;48.214;16.388;2024-03-08T06:42:13;5.00;99.90
19330;DHT22;9799;48.214;16.388;2024-03-08T06:45:34;5.00;99.90
19330;DHT22;9799;48.214;16.388;2024-03-08T06:48:56;5.00;99.90
19330;DHT22;9799;48.214;16.388;2024-03-08T06:52:19;4.80;99.90
19330;DHT22;9799;48.214;16.388;2024-03-08T06:55:40;4.90;99.90
19330;DHT22;9799;48.214;16.388;2024-03-08T06:59:02;4.90;99.90
19330;DHT22;9799;48.214;16.388;2024-03-08T07:02:23;5.10;99.90
19330;DHT22;9799;48.214;16.388;2024-03-08T07:05:45;5.10;99.90
19330;DHT22;9799;48.214;16.388;2024-03-08T07:09:08;5.20;99.90
19330;DHT22;9799;48.214;16.388;2024-03-08T07:12:29;5.40;99.90
19330;DHT22;9799;48.214;16.388;2024-03-08T07:15:50;5.20;99.90
19330;DHT22;9799;48.214;16.388;2024-03-08T07:19:12;5.20;99.90
19330;DHT22;9799;48.214;16.388;2024-03-08T07:22:33;5.10;99.90
19330;DHT22;9799;48.214;16.388;2024-03-08T07:25:58;5.00;99.90
19330;DHT22;9799;48.214;16.388;2024-03-08T07:29:20;5.10;99.90
19330;DHT22;9799;48.214;16.388;2024-03-08T07:32:42;5.20;99.90
19330;DHT22;9799;48.214;16.388;2024-03-08T07:36:04;5.10;99.90
19330;DHT22;9799;48.214;16.388;2024-03-08T07:39:25;5.40;99.90
19330;DHT22;9799;48.214;16.388;2024-03-08T07:42:48;5.70;99.90
19330;DHT22;9799;48.214;16.388;2024-03-08T07:46:09;5.80;99.90
19330;DHT22;9799;48.214;16.388;2024-03-08T07:49:31;5.40;99.90
19330;DHT22;9799;48.214;16.388;2024-03-08T07:52:54;5.30;99.90
19330;DHT22;9799;48.214;16.388;2024-03-08T07:56:15;5.30;99.90
19330;DHT22;9799;48.214;16.388;2024-03-08T07:59:39;5.20;99.90
19330;DHT22;9799;48.214;16.388;2024-03-08T08:03:00;5.20;99.90
19330;DHT22;9799;48.214;16.388;2024-03-08T08:06:22;5.30;99.90
19330;DHT22;9799;48.214;16.388;2024-03-08T08:09:43;5.30;99.90
19330;DHT22;9799;48.214;16.388;2024-03-08T08:13:04;5.40;99.90
19330;DHT22;9799;48.214;16.388;2024-03-08T08:16:27;5.40;99.90
19330;DHT22;9799;48.214;16.388;2024-03-08T08:19:48;5.40;99.90
19330;DHT22;9799;48.214;16.388;2024-03-08T08:23:09;5.30;99.90
19330;DHT22;9799;48.214;16.388;2024-03-08T08:26:32;5.30;99.90
19330;DHT22;9799;48.214;16.388;2024-03-08T08:29:53;5.30;99.90
19330;DHT22;9799;48.214;16.388;2024-03-08T08:33:16;5.30;99.90
19330;DHT22;9799;48.214;16.388;2024-03-08T08:36:38;5.40;99.90
19330;DHT22;9799;48.214;16.388;2024-03-08T08:39:59;5.50;99.90
19330;DHT22;9799;48.214;16.388;2024-03-08T08:43:25;5.40;99.90
19330;DHT22;9799;48.214;16.388;2024-03-08T08:46:46;5.50;99.90
19330;DHT22;9799;48.214;16.388;2024-03-08T08:50:09;5.40;99.90
19330;DHT22;9799;48.214;16.388;2024-03-08T08:53:31;5.50;99.90
19330;DHT22;9799;48.214;16.388;2024-03-08T08:56:52;5.30;99.90
19330;DHT22;9799;48.214;16.388;2024-03-08T09:00:14;5.20;99.90
19330;DHT22;9799;48.214;16.388;2024-03-08T09:03:35;5.20;99.90
19330;DHT22;9799;48.214;16.388;2024-03-08T09:06:58;5.30;99.90
19330;DHT22;9799;48.214;16.388;2024-03-08T09:10:20;5.40;99.90
19330;DHT22;9799;48.214;16.388;2024-03-08T09:13:44;5.40;99.90
19330;DHT22;9799;48.214;16.388;2024-03-08T09:17:06;5.40;99.90
19330;DHT22;9799;48.214;16.388;2024-03-08T09:20:28;5.40;99.90
19330;DHT22;9799;48.214;16.388;2024-03-08T09:23:53;5.60;99.90
19330;DHT22;9799;48.214;16.388;2024-03-08T09:27:14;5.60;99.90
19330;DHT22;9799;48.214;16.388;2024-03-08T09:30:36;5.70;99.90
19330;DHT22;9799;48.214;16.388;2024-03-08T09:33:58;5.70;99.90
19330;DHT22;9799;48.214;16.388;2024-03-08T09:37:19;5.70;99.90
19330;DHT22;9799;48.214;16.388;2024-03-08T09:40:42;5.70;99.90
19330;DHT22;9799;48.214;16.388;2024-03-08T09:44:04;5.60;99.90
19330;DHT22;9799;48.214;16.388;2024-03-08T09:47:25;5.70;99.90
19330;DHT22;9799;48.214;16.388;2024-03-08T09:50:54;5.80;99.90
19330;DHT22;9799;48.214;16.388;2024-03-08T09:54:16;6.00;99.90
19330;DHT22;9799;48.214;16.388;2024-03-08T09:57:43;6.20;99.90
19330;DHT22;9799;48.214;16.388;2024-03-08T10:01:25;6.20;99.90
19330;DHT22;9799;48.214;16.388;2024-03-08T10:04:46;6.10;99.90
19330;DHT22;9799;48.214;16.388;2024-03-08T10:08:08;6.10;99.90
19330;DHT22;9799;48.214;16.388;2024-03-08T10:11:30;6.10;99.90
19330;DHT22;9799;48.214;16.388;2024-03-08T10:14:55;6.50;99.90
19330;DHT22;9799;48.214;16.388;2024-03-08T10:18:16;6.40;99.90
19330;DHT22;9799;48.214;16.388;2024-03-08T10:21:47;6.20;99.90
19330;DHT22;9799;48.214;16.388;2024-03-08T10:25:09;6.10;99.90
19330;DHT22;9799;48.214;16.388;2024-03-08T10:28:31;6.10;99.90
19330;DHT22;9799;48.214;16.388;2024-03-08T10:31:54;6.20;99.90
19330;DHT22;9799;48.214;16.388;2024-03-08T10:35:16;6.50;99.90
19330;DHT22;9799;48.214;16.388;2024-03-08T10:38:39;6.40;99.90
19330;DHT22;9799;48.214;16.388;2024-03-08T10:42:03;6.30;99.90
19330;DHT22;9799;48.214;16.388;2024-03-08T10:45:34;6.50;99.90
19330;DHT22;9799;48.214;16.388;2024-03-08T10:48:58;6.40;99.90
19330;DHT22;9799;48.214;16.388;2024-03-08T10:52:23;6.60;99.90
19330;DHT22;9799;48.214;16.388;2024-03-08T10:55:46;6.60;99.90
19330;DHT22;9799;48.214;16.388;2024-03-08T10:59:08;6.70;99.90
19330;DHT22;9799;48.214;16.388;2024-03-08T11:02:30;7.00;99.90
19330;DHT22;9799;48.214;16.388;2024-03-08T11:05:53;7.20;99.90
19330;DHT22;9799;48.214;16.388;2024-03-08T11:09:35;7.40;99.90
19330;DHT22;9799;48.214;16.388;2024-03-08T11:12:58;7.50;99.90
19330;DHT22;9799;48.214;16.388;2024-03-08T11:16:38;7.40;99.90
19330;DHT22;9799;48.214;16.388;2024-03-08T11:20:01;7.00;99.90
19330;DHT22;9799;48.214;16.388;2024-03-08T11:23:26;7.10;99.90
19330;DHT22;9799;48.214;16.388;2024-03-08T11:26:47;7.40;99.90
19330;DHT22;9799;48.214;16.388;2024-03-08T11:30:09;7.60;99.90
19330;DHT22;9799;48.214;16.388;2024-03-08T11:33:32;7.40;99.90
19330;DHT22;9799;48.214;16.388;2024-03-08T11:36:55;7.50;99.90
19330;DHT22;9799;48.214;16.388;2024-03-08T11:40:19;7.10;99.90
19330;DHT22;9799;48.214;16.388;2024-03-08T11:43:41;7.20;99.90
19330;DHT22;9799;48.214;16.388;2024-03-08T11:47:04;7.30;99.90
19330;DHT22;9799;48.214;16.388;2024-03-08T11:50:29;7.40;99.90
19330;DHT22;9799;48.214;16.388;2024-03-08T11:53:50;7.50;99.90
19330;DHT22;9799;48.214;16.388;2024-03-08T11:57:13;7.50;99.90
19330;DHT22;9799;48.214;16.388;2024-03-08T12:00:34;7.40;99.90
19330;DHT22;9799;48.214;16.388;2024-03-08T12:03:59;7.30;99.90
19330;DHT22;9799;48.214;16.388;2024-03-08T12:07:21;7.40;99.90
19330;DHT22;9799;48.214;16.388;2024-03-08T12:10:42;7.50;99.90
19330;DHT22;9799;48.214;16.388;2024-03-08T12:14:04;7.30;99.90
19330;DHT22;9799;48.214;16.388;2024-03-08T12:17:26;7.40;99.90
19330;DHT22;9799;48.214;16.388;2024-03-08T12:20:47;7.50;99.90
19330;DHT22;9799;48.214;16.388;2024-03-08T12:24:10;7.70;99.90
19330;DHT22;9799;48.214;16.388;2024-03-08T12:27:36;7.80;99.90
19330;DHT22;9799;48.214;16.388;2024-03-08T12:31:00;7.80;99.90
19330;DHT22;9799;48.214;16.388;2024-03-08T12:34:21;7.70;99.90
19330;DHT22;9799;48.214;16.388;2024-03-08T12:37:43;7.60;99.90
19330;DHT22;9799;48.214;16.388;2024-03-08T12:41:04;7.70;99.90
19330;DHT22;9799;48.214;16.388;2024-03-08T12:44:25;7.90;99.90
19330;DHT22;9799;48.214;16.388;2024-03-08T12:47:49;7.90;99.90
19330;DHT22;9799;48.214;16.388;2024-03-08T12:51:10;7.90;99.90
19330;DHT22;9799;48.214;16.388;2024-03-08T12:54:31;8.00;99.90
19330;DHT22;9799;48.214;16.388;2024-03-08T12:57:53;8.00;99.90
19330;DHT22;9799;48.214;16.388;2024-03-08T13:01:14;8.00;99.90
19330;DHT22;9799;48.214;16.388;2024-03-08T13:04:38;7.90;99.90
19330;DHT22;9799;48.214;16.388;2024-03-08T13:08:00;7.90;99.90
19330;DHT22;9799;48.214;16.388;2024-03-08T13:11:22;7.90;99.90
19330;DHT22;9799;48.214;16.388;2024-03-08T13:14:44;8.00;99.90
19330;DHT22;9799;48.214;16.388;2024-03-08T13:18:05;7.90;99.90
19330;DHT22;9799;48.214;16.388;2024-03-08T13:21:30;7.90;99.90
19330;DHT22;9799;48.214;16.388;2024-03-08T13:24:51;7.70;99.90
19330;DHT22;9799;48.214;16.388;2024-03-08T13:28:13;7.70;99.90
19330;DHT22;9799;48.214;16.388;2024-03-08T13:31:35;7.80;99.90
19330;DHT22;9799;48.214;16.388;2024-03-08T13:34:56;7.80;99.90
19330;DHT22;9799;48.214;16.388;2024-03-08T13:38:19;7.90;99.90
19330;DHT22;9799;48.214;16.388;2024-03-08T13:41:40;8.10;99.90
19330;DHT22;9799;48.214;16.388;2024-03-08T13:45:01;8.50;99.90
19330;DHT22;9799;48.214;16.388;2024-03-08T13:48:24;8.60;99.90
19330;DHT22;9799;48.214;16.388;2024-03-08T13:51:45;8.70;99.90
19330;DHT22;9799;48.214;16.388;2024-03-08T13:55:08;8.80;99.90
19330;DHT22;9799;48.214;16.388;2024-03-08T13:58:29;8.70;99.90
19330;DHT22;9799;48.214;16.388;2024-03-08T14:01:51;8.60;99.90
19330;DHT22;9799;48.214;16.388;2024-03-08T14:05:12;8.60;99.90
19330;DHT22;9799;48.214;16.388;2024-03-08T14:08:34;8.60;99.90
19330;DHT22;9799;48.214;16.388;2024-03-08T14:11:59;8.50;99.90
19330;DHT22;9799;48.214;16.388;2024-03-08T14:15:20;8.50;99.90
19330;DHT22;9799;48.214;16.388;2024-03-08T14:18:42;8.40;99.90
19330;DHT22;9799;48.214;16.388;2024-03-08T14:22:03;8.40;99.90
19330;DHT22;9799;48.214;16.388;2024-03-08T14:25:25;8.50;99.90
19330;DHT22;9799;48.214;16.388;2024-03-08T14:28:47;8.40;99.90
19330;DHT22;9799;48.214;16.388;2024-03-08T14:32:11;8.20;99.90
19330;DHT22;9799;48.214;16.388;2024-03-08T14:35:33;8.30;99.90
19330;DHT22;9799;48.214;16.388;2024-03-08T14:38:54;8.30;99.90
19330;DHT22;9799;48.214;16.388;2024-03-08T14:42:15;8.40;99.90
19330;DHT22;9799;48.214;16.388;2024-03-08T14:45:39;8.40;99.90
19330;DHT22;9799;48.214;16.388;2024-03-08T14:49:01;8.50;99.90
19330;DHT22;9799;48.214;16.388;2024-03-08T14:52:22;8.30;99.90
19330;DHT22;9799;48.214;16.388;2024-03-08T14:55:49;8.40;99.90
19330;DHT22;9799;48.214;16.388;2024-03-08T14:59:10;8.50;99.90
19330;DHT22;9799;48.214;16.388;2024-03-08T15:02:34;8.50;99.90
19330;DHT22;9799;48.214;16.388;2024-03-08T15:05:56;8.50;99.90
19330;DHT22;9799;48.214;16.388;2024-03-08T15:09:19;8.50;99.90
19330;DHT22;9799;48.214;16.388;2024-03-08T15:12:40;8.40;99.90
19330;DHT22;9799;48.214;16.388;2024-03-08T15:16:04;8.20;99.90
19330;DHT22;9799;48.214;16.388;2024-03-08T15:19:27;8.20;99.90
19330;DHT22;9799;48.214;16.388;2024-03-08T15:22:48;8.30;99.90
19330;DHT22;9799;48.214;16.388;2024-03-08T15:26:10;8.20;99.90
19330;DHT22;9799;48.214;16.388;2024-03-08T15:29:31;8.20;99.90
19330;DHT22;9799;48.214;16.388;2024-03-08T15:32:55;8.20;99.90
19330;DHT22;9799;48.214;16.388;2024-03-08T15:36:18;8.10;99.90
19330;DHT22;9799;48.214;16.388;2024-03-08T15:39:41;8.20;99.90
19330;DHT22;9799;48.214;16.388;2024-03-08T15:43:03;8.20;99.90
19330;DHT22;9799;48.214;16.388;2024-03-08T15:46:24;8.00;99.90
19330;DHT22;9799;48.214;16.388;2024-03-08T15:49:46;7.90;99.90
19330;DHT22;9799;48.214;16.388;2024-03-08T15:53:09;7.90;99.90
19330;DHT22;9799;48.214;16.388;2024-03-08T15:56:31;7.90;99.90
19330;DHT22;9799;48.214;16.388;2024-03-08T15:59:53;8.00;99.90
19330;DHT22;9799;48.214;16.388;2024-03-08T16:03:19;7.80;99.90
19330;DHT22;9799;48.214;16.388;2024-03-08T16:06:40;7.80;99.90
19330;DHT22;9799;48.214;16.388;2024-03-08T16:10:05;7.80;99.90
19330;DHT22;9799;48.214;16.388;2024-03-08T16:13:27;7.80;99.90
19330;DHT22;9799;48.214;16.388;2024-03-08T16:16:48;7.80;99.90
19330;DHT22;9799;48.214;16.388;2024-03-08T16:20:11;7.90;99.90
19330;DHT22;9799;48.214;16.388;2024-03-08T16:23:34;7.90;99.90
19330;DHT22;9799;48.214;16.388;2024-03-08T16:26:57;7.80;99.90
19330;DHT22;9799;48.214;16.388;2024-03-08T16:30:18;7.80;99.90
19330;DHT22;9799;48.214;16.388;2024-03-08T16:33:40;7.80;99.90
19330;DHT22;9799;48.214;16.388;2024-03-08T16:37:02;7.80;99.90
19330;DHT22;9799;48.214;16.388;2024-03-08T16:40:23;7.90;99.90
19330;DHT22;9799;48.214;16.388;2024-03-08T16:43:46;7.80;99.90
19330;DHT22;9799;48.214;16.388;2024-03-08T16:47:08;7.90;99.90
19330;DHT22;9799;48.214;16.388;2024-03-08T16:50:31;7.80;99.90
19330;DHT22;9799;48.214;16.388;2024-03-08T16:53:52;7.80;99.90
19330;DHT22;9799;48.214;16.388;2024-03-08T16:57:13;7.70;99.90
19330;DHT22;9799;48.214;16.388;2024-03-08T17:00:37;7.70;99.90
19330;DHT22;9799;48.214;16.388;2024-03-08T17:03:58;7.70;99.90
19330;DHT22;9799;48.214;16.388;2024-03-08T17:07:22;7.80;99.90
19330;DHT22;9799;48.214;16.388;2024-03-08T17:10:43;7.70;99.90
19330;DHT22;9799;48.214;16.388;2024-03-08T17:14:04;7.70;99.90
19330;DHT22;9799;48.214;16.388;2024-03-08T17:17:27;7.70;99.90
19330;DHT22;9799;48.214;16.388;2024-03-08T17:20:48;7.70;99.90
19330;DHT22;9799;48.214;16.388;2024-03-08T17:24:09;7.50;99.90
19330;DHT22;9799;48.214;16.388;2024-03-08T17:27:31;7.50;99.90
19330;DHT22;9799;48.214;16.388;2024-03-08T17:30:52;7.50;99.90
19330;DHT22;9799;48.214;16.388;2024-03-08T17:34:15;7.40;99.90
19330;DHT22;9799;48.214;16.388;2024-03-08T17:37:38;7.40;99.90
19330;DHT22;9799;48.214;16.388;2024-03-08T17:40:59;7.40;99.90
19330;DHT22;9799;48.214;16.388;2024-03-08T17:44:20;7.30;99.90
19330;DHT22;9799;48.214;16.388;2024-03-08T17:47:42;7.30;99.90
19330;DHT22;9799;48.214;16.388;2024-03-08T17:51:07;7.30;99.90
19330;DHT22;9799;48.214;16.388;2024-03-08T17:54:28;7.30;99.90
19330;DHT22;9799;48.214;16.388;2024-03-08T17:57:52;7.20;99.90
19330;DHT22;9799;48.214;16.388;2024-03-08T18:01:14;7.30;99.90
19330;DHT22;9799;48.214;16.388;2024-03-08T18:04:37;7.10;99.90
19330;DHT22;9799;48.214;16.388;2024-03-08T18:07:59;7.10;99.90
19330;DHT22;9799;48.214;16.388;2024-03-08T18:11:20;7.10;99.90
19330;DHT22;9799;48.214;16.388;2024-03-08T18:14:43;7.00;99.90
19330;DHT22;9799;48.214;16.388;2024-03-08T18:18:04;7.10;99.90
19330;DHT22;9799;48.214;16.388;2024-03-08T18:21:27;7.20;99.90
19330;DHT22;9799;48.214;16.388;2024-03-08T18:24:52;7.10;99.90
19330;DHT22;9799;48.214;16.388;2024-03-08T18:28:13;7.10;99.90
19330;DHT22;9799;48.214;16.388;2024-03-08T18:31:36;7.10;99.90
19330;DHT22;9799;48.214;16.388;2024-03-08T18:34:57;7.10;99.90
19330;DHT22;9799;48.214;16.388;2024-03-08T18:38:18;7.00;99.90
19330;DHT22;9799;48.214;16.388;2024-03-08T18:41:44;7.00;99.90
19330;DHT22;9799;48.214;16.388;2024-03-08T18:45:06;7.00;99.90
19330;DHT22;9799;48.214;16.388;2024-03-08T18:48:30;7.10;99.90
19330;DHT22;9799;48.214;16.388;2024-03-08T18:51:51;7.10;99.90
19330;DHT22;9799;48.214;16.388;2024-03-08T18:55:14;7.10;99.90
19330;DHT22;9799;48.214;16.388;2024-03-08T18:58:37;7.10;99.90
19330;DHT22;9799;48.214;16.388;2024-03-08T19:01:59;7.20;99.90
19330;DHT22;9799;48.214;16.388;2024-03-08T19:05:22;7.10;99.90
19330;DHT22;9799;48.214;16.388;2024-03-08T19:08:44;7.10;99.90
19330;DHT22;9799;48.214;16.388;2024-03-08T19:12:08;7.10;99.90
19330;DHT22;9799;48.214;16.388;2024-03-08T19:15:34;7.20;99.90
19330;DHT22;9799;48.214;16.388;2024-03-08T19:18:55;7.20;99.90
19330;DHT22;9799;48.214;16.388;2024-03-08T19:22:16;7.20;99.90
19330;DHT22;9799;48.214;16.388;2024-03-08T19:25:39;7.30;99.90
19330;DHT22;9799;48.214;16.388;2024-03-08T19:29:02;7.20;99.90
19330;DHT22;9799;48.214;16.388;2024-03-08T19:32:26;7.20;99.90
19330;DHT22;9799;48.214;16.388;2024-03-08T19:35:47;7.20;99.90
19330;DHT22;9799;48.214;16.388;2024-03-08T19:39:10;7.20;99.90
19330;DHT22;9799;48.214;16.388;2024-03-08T19:42:31;7.30;99.90
19330;DHT22;9799;48.214;16.388;2024-03-08T19:45:53;7.30;99.90
19330;DHT22;9799;48.214;16.388;2024-03-08T19:49:16;7.30;99.90
19330;DHT22;9799;48.214;16.388;2024-03-08T19:52:37;7.20;99.90
19330;DHT22;9799;48.214;16.388;2024-03-08T19:55:58;7.20;99.90
19330;DHT22;9799;48.214;16.388;2024-03-08T19:59:21;7.20;99.90
19330;DHT22;9799;48.214;16.388;2024-03-08T20:02:45;7.20;99.90
19330;DHT22;9799;48.214;16.388;2024-03-08T20:06:08;7.20;99.90
19330;DHT22;9799;48.214;16.388;2024-03-08T20:09:29;7.20;99.90
19330;DHT22;9799;48.214;16.388;2024-03-08T20:12:51;7.20;99.90
19330;DHT22;9799;48.214;16.388;2024-03-08T20:16:13;7.20;99.90
19330;DHT22;9799;48.214;16.388;2024-03-08T20:19:34;7.20;99.90
19330;DHT22;9799;48.214;16.388;2024-03-08T20:22:57;7.10;99.90
19330;DHT22;9799;48.214;16.388;2024-03-08T20:26:19;7.10;99.90
19330;DHT22;9799;48.214;16.388;2024-03-08T20:29:42;7.10;99.90
19330;DHT22;9799;48.214;16.388;2024-03-08T20:33:03;7.10;99.90
19330;DHT22;9799;48.214;16.388;2024-03-08T20:36:25;7.10;99.90
19330;DHT22;9799;48.214;16.388;2024-03-08T20:39:47;7.10;99.90
19330;DHT22;9799;48.214;16.388;2024-03-08T20:43:09;7.00;99.90
19330;DHT22;9799;48.214;16.388;2024-03-08T20:46:31;7.10;99.90
19330;DHT22;9799;48.214;16.388;2024-03-08T20:49:52;7.10;99.90
19330;DHT22;9799;48.214;16.388;2024-03-08T20:53:14;7.10;99.90
19330;DHT22;9799;48.214;16.388;2024-03-08T20:56:36;7.00;99.90
19330;DHT22;9799;48.214;16.388;2024-03-08T20:59:58;7.00;99.90
19330;DHT22;9799;48.214;16.388;2024-03-08T21:03:19;7.00;99.90
19330;DHT22;9799;48.214;16.388;2024-03-08T21:06:43;6.90;99.90
19330;DHT22;9799;48.214;16.388;2024-03-08T21:10:05;7.00;99.90
19330;DHT22;9799;48.214;16.388;2024-03-08T21:13:31;7.00;99.90
19330;DHT22;9799;48.214;16.388;2024-03-08T21:16:54;7.00;99.90
19330;DHT22;9799;48.214;16.388;2024-03-08T21:20:17;7.00;99.90
19330;DHT22;9799;48.214;16.388;2024-03-08T21:23:38;6.90;99.90
19330;DHT22;9799;48.214;16.388;2024-03-08T21:27:01;6.90;99.90
19330;DHT22;9799;48.214;16.388;2024-03-08T21:30:23;6.90;99.90
19330;DHT22;9799;48.214;16.388;2024-03-08T21:33:45;6.90;99.90
19330;DHT22;9799;48.214;16.388;2024-03-08T21:37:07;6.90;99.90